Time,TemperatureF,DewpointF,PressureIn,WindDirection,WindDirectionDegrees,WindSpeedMPH,WindSpeedGustMPH,Humidity,HourlyPrecipIn,Conditions,Clouds,dailyrainin,SolarRadiationWatts/m^2,SoftwareType,DateUTC
2013-06-20 00:02:00,44.0,42.0,30.20,NE,38,0.0,0.0,92,0.00,,,0.00,0.000000,,2013-06-20 04:02:00,
2013-06-20 00:11:00,44.0,42.0,30.20,NE,38,0.0,0.0,92,0.00,,,0.00,0.000000,,2013-06-20 04:11:00,
2013-06-20 00:23:00,44.0,42.0,30.20,NE,38,0.0,0.0,92,0.00,,,0.00,0.000000,,2013-06-20 04:23:00,
2013-06-20 00:34:00,43.0,41.0,30.20,NE,38,0.0,0.0,92,0.00,,,0.00,0.000000,,2013-06-20 04:34:00,
2013-06-20 00:43:00,43.0,41.0,30.20,NE,38,0.0,0.0,93,0.00,,,0.00,0.000000,,2013-06-20 04:43:00,
2013-06-20 00:53:00,43.0,41.0,30.20,NE,38,0.0,0.0,93,0.00,,,0.00,0.000000,,2013-06-20 04:53:00,
2013-06-20 01:02:00,43.0,41.0,30.20,NE,38,0.0,0.0,93,0.00,,,0.00,0.000000,,2013-06-20 05:02:00,
2013-06-20 01:12:00,42.0,40.0,30.20,NE,38,0.0,0.0,93,0.00,,,0.00,0.000000,,2013-06-20 05:12:00,
2013-06-20 01:22:00,42.0,40.0,30.21,NE,38,0.0,0.0,93,0.00,,,0.00,0.000000,,2013-06-20 05:22:00,
2013-06-20 01:33:00,42.0,40.0,30.21,NE,38,0.0,0.0,93,0.00,,,0.00,0.000000,,2013-06-20 05:33:00,
2013-06-20 01:44:00,41.0,39.0,30.21,NE,38,0.0,0.0,94,0.00,,,0.00,0.000000,,2013-06-20 05:44:00,
2013-06-20 01:52:00,41.0,39.0,30.21,NE,38,0.0,0.0,94,0.00,,,0.00,0.000000,,2013-06-20 05:52:00,
2013-06-20 02:02:00,41.0,39.0,30.22,NE,38,0.0,0.0,94,0.00,,,0.00,0.000000,,2013-06-20 06:02:00,
2013-06-20 02:11:00,41.0,41.0,30.21,NE,38,0.0,1.0,99,0.00,,,0.00,0.000000,,2013-06-20 06:11:00,
2013-06-20 02:22:00,41.0,39.0,30.22,NE,38,0.0,0.0,94,0.00,,,0.00,0.000000,,2013-06-20 06:22:00,
2013-06-20 02:34:00,41.0,39.0,30.22,NE,38,0.0,1.0,94,0.00,,,0.00,0.000000,,2013-06-20 06:34:00,
2013-06-20 02:43:00,40.0,38.0,30.22,NE,38,0.0,0.0,94,0.00,,,0.00,0.000000,,2013-06-20 06:43:00,
2013-06-20 02:53:00,40.0,38.0,30.22,NE,38,0.0,0.0,94,0.00,,,0.00,0.000000,,2013-06-20 06:53:00,
2013-06-20 03:01:00,40.0,38.0,30.22,NE,38,0.0,1.0,94,0.00,,,0.00,0.000000,,2013-06-20 07:01:00,
2013-06-20 03:12:00,40.0,38.0,30.22,NE,38,0.0,0.0,94,0.00,,,0.00,0.000000,,2013-06-20 07:12:00,
2013-06-20 03:22:00,40.0,38.0,30.22,NE,38,0.0,0.0,94,0.00,,,0.00,0.000000,,2013-06-20 07:22:00,
2013-06-20 03:34:00,39.0,37.0,30.22,NE,38,0.0,0.0,94,0.00,,,0.00,0.000000,,2013-06-20 07:34:00,
2013-06-20 03:44:00,39.0,37.0,30.22,NE,38,0.0,0.0,94,0.00,,,0.00,0.000000,,2013-06-20 07:44:00,
2013-06-20 03:52:00,39.0,38.0,30.22,NE,38,0.0,0.0,95,0.00,,,0.00,0.000000,,2013-06-20 07:52:00,
2013-06-20 04:02:00,39.0,38.0,30.23,NE,38,0.0,0.0,95,0.00,,,0.00,0.000000,,2013-06-20 08:02:00,
2013-06-20 04:11:00,39.0,38.0,30.23,NE,38,0.0,0.0,95,0.00,,,0.00,0.000000,,2013-06-20 08:11:00,
2013-06-20 04:22:00,39.0,38.0,30.23,NE,38,0.0,0.0,95,0.00,,,0.00,0.000000,,2013-06-20 08:22:00,
2013-06-20 04:34:00,39.0,38.0,30.23,NE,38,0.0,0.0,95,0.00,,,0.00,0.000000,,2013-06-20 08:34:00,
2013-06-20 04:43:00,39.0,38.0,30.23,NE,38,0.0,0.0,95,0.00,,,0.00,0.000000,,2013-06-20 08:43:00,
2013-06-20 04:53:00,38.0,37.0,30.24,NE,38,0.0,0.0,95,0.00,,,0.00,0.000000,,2013-06-20 08:53:00,
2013-06-20 05:02:00,38.0,37.0,30.24,NE,38,0.0,0.0,95,0.00,,,0.00,0.000000,,2013-06-20 09:02:00,
2013-06-20 05:12:00,38.0,37.0,30.24,NE,38,0.0,0.0,95,0.00,,,0.00,0.000000,,2013-06-20 09:12:00,
2013-06-20 05:22:00,38.0,37.0,30.25,NE,38,0.0,0.0,95,0.00,,,0.00,0.000000,,2013-06-20 09:22:00,
2013-06-20 05:33:00,38.0,37.0,30.25,NE,38,0.0,0.0,95,0.00,,,0.00,7.000000,,2013-06-20 09:33:00,
2013-06-20 05:42:00,38.0,37.0,30.25,NE,38,0.0,0.0,95,0.00,,,0.00,12.000000,,2013-06-20 09:42:00,
2013-06-20 05:52:00,38.0,37.0,30.25,NE,38,0.0,0.0,95,0.00,,,0.00,16.000000,,2013-06-20 09:52:00,
2013-06-20 06:02:00,38.0,37.0,30.26,NE,38,0.0,0.0,95,0.00,,,0.00,21.000000,,2013-06-20 10:02:00,
2013-06-20 06:11:00,38.0,37.0,30.26,NE,38,0.0,0.0,96,0.00,,,0.00,21.000000,,2013-06-20 10:11:00,
2013-06-20 06:22:00,38.0,37.0,30.26,NE,38,0.0,0.0,96,0.00,,,0.00,26.000000,,2013-06-20 10:22:00,
2013-06-20 06:34:00,39.0,38.0,30.27,NE,38,0.0,0.0,96,0.00,,,0.00,30.000000,,2013-06-20 10:34:00,
2013-06-20 06:43:00,39.0,38.0,30.27,NE,38,0.0,0.0,96,0.00,,,0.00,58.000000,,2013-06-20 10:43:00,
2013-06-20 06:53:00,39.0,38.0,30.27,NE,38,0.0,0.0,96,0.00,,,0.00,63.000000,,2013-06-20 10:53:00,
2013-06-20 07:02:00,39.0,38.0,30.27,NE,38,0.0,1.0,96,0.00,,,0.00,93.000000,,2013-06-20 11:02:00,
2013-06-20 07:12:00,40.0,39.0,30.27,NE,38,0.0,0.0,96,0.00,,,0.00,93.000000,,2013-06-20 11:12:00,
2013-06-20 07:22:00,40.0,39.0,30.27,NE,38,0.0,0.0,96,0.00,,,0.00,70.000000,,2013-06-20 11:22:00,
2013-06-20 07:34:00,41.0,40.0,30.27,NE,38,0.0,0.0,96,0.00,,,0.00,211.000000,,2013-06-20 11:34:00,
2013-06-20 07:43:00,41.0,40.0,30.27,NE,38,0.0,0.0,96,0.00,,,0.00,308.000000,,2013-06-20 11:43:00,
2013-06-20 07:53:00,43.0,42.0,30.27,NE,38,0.0,0.0,97,0.00,,,0.00,350.000000,,2013-06-20 11:53:00,
2013-06-20 08:02:00,44.0,43.0,30.27,NE,38,0.0,1.0,97,0.00,,,0.00,366.000000,,2013-06-20 12:02:00,
2013-06-20 08:12:00,45.0,44.0,30.27,NE,38,0.0,1.0,97,0.00,,,0.00,401.000000,,2013-06-20 12:12:00,
2013-06-20 08:22:00,47.0,46.0,30.27,NE,38,0.0,0.0,97,0.00,,,0.00,448.000000,,2013-06-20 12:22:00,
2013-06-20 08:34:00,47.0,46.0,30.27,NE,38,0.0,0.0,97,0.00,,,0.00,492.000000,,2013-06-20 12:34:00,
2013-06-20 08:43:00,49.0,48.0,30.27,NE,38,0.0,1.0,97,0.00,,,0.00,536.000000,,2013-06-20 12:43:00,
2013-06-20 08:53:00,50.0,49.0,30.27,NE,38,0.0,1.0,97,0.00,,,0.00,552.000000,,2013-06-20 12:53:00,
2013-06-20 09:02:00,51.0,50.0,30.27,NE,38,0.0,1.0,97,0.00,,,0.00,568.000000,,2013-06-20 13:02:00,
2013-06-20 09:11:00,55.0,52.0,30.26,NE,38,0.0,1.0,90,0.00,,,0.00,612.000000,,2013-06-20 13:11:00,
2013-06-20 09:22:00,57.0,51.0,30.26,NE,38,0.0,1.0,80,0.00,,,0.00,640.000000,,2013-06-20 13:22:00,
2013-06-20 09:33:00,58.0,49.0,30.26,SE,130,0.0,4.0,73,0.00,,,0.00,668.000000,,2013-06-20 13:33:00,
2013-06-20 09:42:00,61.0,50.0,30.26,SE,130,0.0,4.0,66,0.00,,,0.00,707.000000,,2013-06-20 13:42:00,
2013-06-20 09:53:00,63.0,50.0,30.26,South,191,1.0,4.0,63,0.00,,,0.00,701.000000,,2013-06-20 13:53:00,
2013-06-20 10:02:00,65.0,51.0,30.25,SSW,194,1.0,4.0,61,0.00,,,0.00,369.000000,,2013-06-20 14:02:00,
2013-06-20 10:11:00,66.0,51.0,30.25,SSW,194,0.0,4.0,59,0.00,,,0.00,190.000000,,2013-06-20 14:11:00,
2013-06-20 10:22:00,67.0,49.0,30.25,SSW,213,3.0,6.0,53,0.00,,,0.00,223.000000,,2013-06-20 14:22:00,
2013-06-20 10:32:00,69.0,51.0,30.25,SSW,213,0.0,3.0,53,0.00,,,0.00,174.000000,,2013-06-20 14:32:00,
2013-06-20 10:42:00,69.0,49.0,30.25,WSW,257,1.0,6.0,49,0.00,,,0.00,250.000000,,2013-06-20 14:42:00,
2013-06-20 10:53:00,70.0,50.0,30.25,South,174,2.0,7.0,49,0.00,,,0.00,241.000000,,2013-06-20 14:53:00,
2013-06-20 11:02:00,70.0,48.0,30.24,SSW,192,5.0,7.0,45,0.00,,,0.00,250.000000,,2013-06-20 15:02:00,
2013-06-20 11:11:00,69.0,48.0,30.24,South,172,3.0,8.0,47,0.00,,,0.00,253.000000,,2013-06-20 15:11:00,
2013-06-20 11:22:00,70.0,48.0,30.25,SSW,193,4.0,7.0,45,0.00,,,0.00,237.000000,,2013-06-20 15:22:00,
2013-06-20 11:33:00,70.0,46.0,30.25,South,188,1.0,7.0,43,0.00,,,0.00,309.000000,,2013-06-20 15:33:00,
2013-06-20 11:43:00,72.0,48.0,30.24,South,169,0.0,5.0,42,0.00,,,0.00,348.000000,,2013-06-20 15:43:00,
2013-06-20 11:53:00,73.0,48.0,30.24,SSW,210,5.0,9.0,41,0.00,,,0.00,443.000000,,2013-06-20 15:53:00,
2013-06-20 12:02:00,72.0,48.0,30.23,SSW,193,1.0,6.0,42,0.00,,,0.00,650.000000,,2013-06-20 16:02:00,
2013-06-20 12:12:00,72.0,47.0,30.24,ENE,67,0.0,6.0,41,0.00,,,0.00,446.000000,,2013-06-20 16:12:00,
2013-06-20 12:22:00,74.0,47.0,30.24,WNW,286,7.0,11.0,38,0.00,,,0.00,591.000000,,2013-06-20 16:22:00,
2013-06-20 12:33:00,74.0,48.0,30.23,NW,311,4.0,11.0,40,0.00,,,0.00,1056.000000,,2013-06-20 16:33:00,
2013-06-20 12:43:00,74.0,47.0,30.23,North,350,6.0,9.0,39,0.00,,,0.00,489.000000,,2013-06-20 16:43:00,
2013-06-20 12:52:00,74.0,47.0,30.23,WNW,292,1.0,8.0,39,0.00,,,0.00,921.000000,,2013-06-20 16:52:00,
2013-06-20 13:02:00,73.0,46.0,30.23,WSW,240,5.0,9.0,38,0.00,,,0.00,371.000000,,2013-06-20 17:02:00,
2013-06-20 13:12:00,74.0,46.0,30.23,WNW,287,2.0,8.0,37,0.00,,,0.00,949.000000,,2013-06-20 17:12:00,
2013-06-20 13:22:00,75.0,48.0,30.23,South,190,2.0,7.0,38,0.00,,,0.00,991.000000,,2013-06-20 17:22:00,
2013-06-20 13:32:00,75.0,49.0,30.23,North,360,1.0,7.0,40,0.00,,,0.00,991.000000,,2013-06-20 17:32:00,
2013-06-20 13:43:00,75.0,45.0,30.22,West,259,1.0,10.0,35,0.00,,,0.00,969.000000,,2013-06-20 17:43:00,
2013-06-20 14:01:00,75.0,46.0,30.22,NNW,333,3.0,9.0,36,0.00,,,0.00,956.000000,,2013-06-20 18:01:00,
2013-06-20 14:11:00,75.0,45.0,30.22,SE,140,0.0,8.0,35,0.00,,,0.00,928.000000,,2013-06-20 18:11:00,
2013-06-20 14:22:00,76.0,44.0,30.22,WSW,244,0.0,10.0,32,0.00,,,0.00,925.000000,,2013-06-20 18:22:00,
2013-06-20 14:33:00,77.0,46.0,30.21,West,279,5.0,9.0,33,0.00,,,0.00,923.000000,,2013-06-20 18:33:00,
2013-06-20 14:43:00,77.0,44.0,30.22,North,360,1.0,12.0,31,0.00,,,0.00,909.000000,,2013-06-20 18:43:00,
2013-06-20 14:53:00,77.0,43.0,30.21,NNW,329,0.0,8.0,30,0.00,,,0.00,904.000000,,2013-06-20 18:53:00,
2013-06-20 15:01:00,78.0,44.0,30.21,SW,236,1.0,8.0,30,0.00,,,0.00,882.000000,,2013-06-20 19:01:00,
2013-06-20 15:11:00,79.0,46.0,30.21,NW,319,4.0,13.0,31,0.00,,,0.00,861.000000,,2013-06-20 19:11:00,
2013-06-20 15:22:00,79.0,47.0,30.21,WNW,294,5.0,9.0,32,0.00,,,0.00,844.000000,,2013-06-20 19:22:00,
2013-06-20 15:34:00,78.0,46.0,30.21,WNW,294,3.0,10.0,32,0.00,,,0.00,826.000000,,2013-06-20 19:34:00,
2013-06-20 15:43:00,77.0,46.0,30.21,NNE,22,6.0,12.0,34,0.00,,,0.00,805.000000,,2013-06-20 19:43:00,
2013-06-20 15:52:00,77.0,46.0,30.20,NW,325,4.0,12.0,33,0.00,,,0.00,775.000000,,2013-06-20 19:52:00,
2013-06-20 16:02:00,77.0,46.0,30.20,WNW,283,4.0,10.0,33,0.00,,,0.00,714.000000,,2013-06-20 20:02:00,
2013-06-20 16:11:00,78.0,47.0,30.20,NW,325,2.0,9.0,33,0.00,,,0.00,728.000000,,2013-06-20 20:11:00,
2013-06-20 16:33:00,78.0,47.0,30.20,NNW,343,8.0,11.0,34,0.00,,,0.00,701.000000,,2013-06-20 20:33:00,